MST,Max TemperatureF,Mean TemperatureF,Min TemperatureF,Max Dew PointF,MeanDew PointF,Min DewpointF,Max Humidity, Mean Humidity, Min Humidity, Max Sea Level PressureIn, Mean Sea Level PressureIn, Min Sea Level PressureIn, Max VisibilityMiles, Mean VisibilityMiles, Min VisibilityMiles, Max Wind SpeedMPH, Mean Wind SpeedMPH, Max Gust SpeedMPH,PrecipitationIn, CloudCover, Events, WindDirDegrees
2014-2-1,23,5,-14,8,-5,-17,92,72,52,30.31,30.13,29.94,10,10,5,14,5,16,T,2,Snow,19
2014-2-2,20,2,-17,5,-6,-21,91,70,49,30.35,30.18,29.85,10,10,5,8,3,9,0.00,2,,69
2014-2-3,19,5,-10,11,2,-12,92,77,61,30.12,29.94,29.71,10,8,2,10,4,11,T,6,Snow,41
2014-2-4,13,1,-12,8,-5,-15,92,80,67,30.35,29.98,29.70,10,8,1,18,8,21,T,6,Snow,136
2014-2-5,-1,-11,-21,-8,-16,-26,90,78,65,30.50,30.22,29.97,10,5,2,10,4,11,T,7,Snow,73
2014-2-6,2,-6,-14,-4,-11,-20,90,78,65,30.34,30.05,29.79,10,3,1,8,1,9,T,8,Snow,65
2014-2-7,13,0,-14,10,-1,-16,95,84,73,30.12,29.90,29.71,10,5,1,9,2,9,T,7,Snow,86
2014-2-8,33,22,10,29,20,9,92,84,75,29.97,29.82,29.69,10,3,0,20,5,22,0.01,8,Fog-Snow,253
2014-2-9,34,22,9,28,22,9,92,76,59,30.06,29.90,29.78,10,9,2,28,11,33,T,3,Snow,294
2014-2-10,34,18,1,18,10,0,92,72,51,30.32,30.17,30.03,10,10,10,20,7,20,0.00,1,,360
2014-2-11,31,15,-2,19,9,-4,92,80,68,30.30,30.20,30.05,10,7,1,17,6,20,T,5,Snow,42
2014-2-12,34,19,4,28,19,5,92,81,69,30.29,30.08,29.94,10,6,0,10,5,13,T,6,Fog-Snow,68
2014-2-13,40,24,8,30,19,4,92,75,57,30.07,29.98,29.90,10,6,0,33,13,42,T,5,Fog-Snow,347
2014-2-14,36,25,14,31,19,7,92,74,55,30.15,30.03,29.86,10,7,1,20,4,25,T,7,Rain-Snow,42
2014-2-15,40,34,27,34,31,25,92,85,78,30.06,29.98,29.86,10,7,1,18,5,22,0.01,7,Rain-Snow,116
2014-2-16,39,25,11,32,20,4,92,73,53,30.23,29.89,29.70,10,10,7,44,13,50,T,3,Snow,288
2014-2-17,37,19,0,19,6,-4,86,61,35,30.33,30.15,29.90,10,10,10,20,6,22,0.00,0,,42
2014-2-18,37,25,12,20,15,9,80,59,37,30.10,30.01,29.85,10,10,10,32,11,40,0.00,2,,4
2014-2-19,33,19,5,24,12,3,88,69,50,30.00,29.82,29.67,10,7,0,36,12,42,T,5,Snow,336
2014-2-20,24,11,-3,11,4,-6,83,64,45,30.24,30.14,29.98,10,10,10,23,7,31,T,3,,292
2014-2-21,30,22,14,20,14,8,80,68,55,30.02,29.96,29.90,10,10,10,28,11,33,0.00,3,,302
2014-2-22,28,21,14,19,16,9,92,75,57,29.96,29.89,29.81,10,5,1,18,4,23,T,7,Snow,55
2014-2-23,38,27,15,22,20,14,96,74,52,30.03,29.95,29.87,10,7,1,18,8,21,T,6,Snow,211
2014-2-24,43,31,18,25,21,13,84,64,44,30.05,29.97,29.87,10,10,10,32,9,42,0.00,1,,29
2014-2-25,43,29,14,30,19,9,88,74,59,30.22,30.05,29.95,10,10,10,21,8,26,0.00,2,,49
2014-2-26,34,21,7,22,12,5,96,76,56,30.25,30.12,29.93,10,7,0,12,6,14,0.00,4,Fog,43
2014-2-27,35,23,10,26,17,7,88,72,56,30.01,29.80,29.65,10,10,2,9,3,10,T,3,Snow,62
2014-2-28,40,31,21,30,26,18,92,71,50,29.72,29.65,29.53,10,6,0,24,8,29,T,6,Fog-Snow,205